createdAt,value
2022-11-15T00:01:18.663Z,9.50
2022-11-15T00:03:46.219Z,9.60
2022-11-15T00:06:13.441Z,9.60
2022-11-15T00:08:40.255Z,9.60
2022-11-15T00:11:07.075Z,9.60
2022-11-15T00:13:34.305Z,9.60
2022-11-15T00:16:02.734Z,9.70
2022-11-15T00:18:31.724Z,9.70
2022-11-15T00:21:07.779Z,9.80
2022-11-15T00:23:35.079Z,9.80
2022-11-15T00:26:05.855Z,9.80
2022-11-15T00:28:32.638Z,9.90
2022-11-15T00:31:12.152Z,9.90
2022-11-15T00:33:39.003Z,10.10
2022-11-15T00:36:11.538Z,10.00
2022-11-15T00:38:41.047Z,10.00
2022-11-15T00:41:09.882Z,10.10
2022-11-15T00:43:37.247Z,10.10
2022-11-15T00:46:04.092Z,10.20
2022-11-15T00:48:31.118Z,10.20
2022-11-15T00:50:58.613Z,10.20
2022-11-15T00:53:25.380Z,10.20
2022-11-15T00:55:52.123Z,10.20
2022-11-15T00:58:19.277Z,10.10
2022-11-15T01:00:46.111Z,10.10
2022-11-15T01:03:12.870Z,10.10
2022-11-15T01:05:39.650Z,10.10
2022-11-15T01:08:06.451Z,10.10
2022-11-15T01:10:34.411Z,10.10
2022-11-15T01:13:01.255Z,10.10
2022-11-15T01:15:28.063Z,10.10
2022-11-15T01:17:55.766Z,10.10
2022-11-15T01:20:22.534Z,10.10
2022-11-15T01:22:49.278Z,10.10
2022-11-15T01:25:16.081Z,10.20
2022-11-15T01:27:42.827Z,10.20
2022-11-15T01:30:10.237Z,10.30
2022-11-15T01:32:36.999Z,10.30
2022-11-15T01:35:04.068Z,10.30
2022-11-15T01:37:30.832Z,10.30
2022-11-15T01:39:57.578Z,10.40
2022-11-15T01:42:24.324Z,10.40
2022-11-15T01:44:53.988Z,10.30
2022-11-15T01:47:32.792Z,10.30
2022-11-15T01:50:07.137Z,10.40
2022-11-15T01:52:36.271Z,10.30
2022-11-15T01:55:11.951Z,10.30
2022-11-15T01:57:41.940Z,10.30
2022-11-15T02:00:09.842Z,10.30
2022-11-15T02:02:38.301Z,10.30
2022-11-15T02:05:05.783Z,10.30
2022-11-15T02:07:35.711Z,10.20
2022-11-15T02:10:11.532Z,10.20
2022-11-15T02:12:38.906Z,10.20
2022-11-15T02:15:08.412Z,10.20
2022-11-15T02:18:11.596Z,10.10
2022-11-15T02:20:59.462Z,10.10
2022-11-15T02:24:08.154Z,10.10
2022-11-15T02:27:07.895Z,10.10
2022-11-15T02:29:49.463Z,10.10
2022-11-15T02:32:43.839Z,10.10
2022-11-15T02:35:35.272Z,10.10
2022-11-15T02:38:37.935Z,10.10
2022-11-15T02:41:14.052Z,10.20
2022-11-15T02:44:15.827Z,10.10
2022-11-15T02:47:10.293Z,10.10
2022-11-15T02:49:38.976Z,10.10
2022-11-15T02:52:05.732Z,10.10
2022-11-15T02:54:35.150Z,10.10
2022-11-15T02:57:22.166Z,10.10
2022-11-15T03:00:18.255Z,10.10
2022-11-15T03:03:19.068Z,10.10
2022-11-15T03:06:15.465Z,10.10
2022-11-15T03:09:02.594Z,10.10
2022-11-15T03:11:37.301Z,10.10
2022-11-15T03:14:31.486Z,10.10
2022-11-15T03:17:09.011Z,10.20
2022-11-15T03:19:55.897Z,10.10
2022-11-15T03:22:27.963Z,10.10
2022-11-15T03:25:03.011Z,10.10
2022-11-15T03:27:39.116Z,10.10
2022-11-15T03:30:09.539Z,10.10
2022-11-15T03:32:45.352Z,10.10
2022-11-15T03:35:19.355Z,10.20
2022-11-15T03:37:55.076Z,10.10
2022-11-15T03:40:46.185Z,10.10
2022-11-15T03:43:54.627Z,10.10
2022-11-15T03:46:32.616Z,10.10
2022-11-15T03:49:30.229Z,10.10
2022-11-15T03:52:01.763Z,10.10
2022-11-15T03:54:28.648Z,10.10
2022-11-15T03:56:55.523Z,10.10
2022-11-15T03:59:22.476Z,10.10
2022-11-15T04:01:49.303Z,10.10
2022-11-15T04:04:16.021Z,10.10
2022-11-15T04:06:42.730Z,10.10
2022-11-15T04:09:09.496Z,10.10
2022-11-15T04:11:36.240Z,10.10
2022-11-15T04:14:03.132Z,10.10
2022-11-15T04:16:29.857Z,10.10
2022-11-15T04:19:15.275Z,10.10
2022-11-15T04:22:00.593Z,10.20
2022-11-15T04:24:27.297Z,10.20
2022-11-15T04:26:54.103Z,10.20
2022-11-15T04:29:35.522Z,10.10
2022-11-15T04:32:07.923Z,10.20
2022-11-15T04:34:35.211Z,10.20
2022-11-15T04:37:14.292Z,10.20
2022-11-15T04:39:42.707Z,10.20
2022-11-15T04:42:10.255Z,10.20
2022-11-15T04:44:37.252Z,10.20
2022-11-15T04:47:06.294Z,10.20
2022-11-15T04:49:33.039Z,10.20
2022-11-15T04:51:59.863Z,10.20
2022-11-15T04:54:26.782Z,10.20
2022-11-15T04:56:53.574Z,10.20
2022-11-15T04:59:20.311Z,10.20
2022-11-15T05:01:47.115Z,10.20
2022-11-15T05:04:19.901Z,10.20
2022-11-15T05:06:51.986Z,10.20
2022-11-15T05:09:20.669Z,10.20
2022-11-15T05:11:47.789Z,10.20
2022-11-15T05:14:15.220Z,10.20
2022-11-15T05:16:42.863Z,10.20
2022-11-15T05:19:10.068Z,10.20
2022-11-15T05:21:37.671Z,10.20
2022-11-15T05:24:05.171Z,10.20
2022-11-15T05:26:32.049Z,10.20
2022-11-15T05:29:00.385Z,10.20
2022-11-15T05:31:28.212Z,10.20
2022-11-15T05:33:57.386Z,10.20
2022-11-15T05:36:41.720Z,10.20
2022-11-15T05:39:10.027Z,10.20
2022-11-15T05:41:55.398Z,10.20
2022-11-15T05:44:24.589Z,10.20
2022-11-15T05:46:54.690Z,10.20
2022-11-15T05:49:28.080Z,10.20
2022-11-15T05:51:55.627Z,10.20
2022-11-15T05:54:24.133Z,10.20
2022-11-15T05:56:52.082Z,10.20
2022-11-15T05:59:19.805Z,10.20
2022-11-15T06:01:46.865Z,10.20
2022-11-15T06:04:13.639Z,10.20
2022-11-15T06:06:40.384Z,10.20
2022-11-15T06:09:07.122Z,10.20
2022-11-15T06:11:33.859Z,10.20
2022-11-15T06:14:00.584Z,10.20
2022-11-15T06:16:27.361Z,10.20
2022-11-15T06:18:54.070Z,10.20
2022-11-15T06:21:21.237Z,10.20
2022-11-15T06:23:48.019Z,10.10
2022-11-15T06:26:14.807Z,10.10
2022-11-15T06:28:41.570Z,10.10
2022-11-15T06:31:14.664Z,10.10
2022-11-15T06:33:42.004Z,10.10
2022-11-15T06:36:17.493Z,10.00
2022-11-15T06:38:47.949Z,10.00
2022-11-15T06:41:15.847Z,9.90
2022-11-15T06:43:42.693Z,9.80
2022-11-15T06:46:09.882Z,9.80
2022-11-15T06:48:37.203Z,9.70
2022-11-15T06:51:05.727Z,9.70
2022-11-15T06:53:33.747Z,9.70
2022-11-15T06:56:06.805Z,9.80
2022-11-15T06:58:33.880Z,9.80
2022-11-15T07:01:12.814Z,9.80
2022-11-15T07:03:42.975Z,9.80
2022-11-15T07:06:10.869Z,9.80
2022-11-15T07:08:37.769Z,9.80
2022-11-15T07:11:08.384Z,9.80
2022-11-15T07:13:37.113Z,9.80
2022-11-15T07:16:10.105Z,9.80
2022-11-15T07:18:39.976Z,9.70
2022-11-15T07:21:11.159Z,9.80
2022-11-15T07:23:39.692Z,9.80
2022-11-15T07:26:07.563Z,9.90
2022-11-15T07:28:35.487Z,9.90
2022-11-15T07:31:08.871Z,9.90
2022-11-15T07:33:36.701Z,10.00
2022-11-15T07:36:08.106Z,10.00
2022-11-15T07:38:42.148Z,10.00
2022-11-15T07:41:09.830Z,10.00
2022-11-15T07:43:36.769Z,10.00
2022-11-15T07:46:10.392Z,10.00
2022-11-15T07:48:45.324Z,10.10
2022-11-15T07:51:15.240Z,10.20
2022-11-15T07:53:45.609Z,10.10
2022-11-15T07:56:13.084Z,10.20
2022-11-15T07:58:39.891Z,10.20
2022-11-15T08:01:09.974Z,10.20
2022-11-15T08:03:37.804Z,10.30
2022-11-15T08:06:05.060Z,10.40
2022-11-15T08:08:31.824Z,10.30
2022-11-15T08:10:59.709Z,10.30
2022-11-15T08:13:26.642Z,10.40
2022-11-15T08:15:58.009Z,10.40
2022-11-15T08:18:25.751Z,10.40
2022-11-15T08:20:52.477Z,10.40
2022-11-15T08:23:19.400Z,10.50
2022-11-15T08:25:46.167Z,10.50
2022-11-15T08:28:13.070Z,10.50
2022-11-15T08:30:43.474Z,10.60
2022-11-15T08:33:14.998Z,10.70
2022-11-15T08:35:45.333Z,10.90
2022-11-15T08:38:12.527Z,11.10
2022-11-15T08:40:39.401Z,11.10
2022-11-15T08:43:06.826Z,11.10
2022-11-15T08:45:36.434Z,11.00
2022-11-15T08:48:04.407Z,11.10
2022-11-15T08:50:31.594Z,11.10
2022-11-15T08:52:58.775Z,11.20
2022-11-15T08:55:25.589Z,11.10
2022-11-15T08:57:52.389Z,11.20
2022-11-15T09:00:21.122Z,11.20
2022-11-15T09:02:48.584Z,11.20
2022-11-15T09:05:16.756Z,11.20
2022-11-15T09:07:44.124Z,11.20
2022-11-15T09:10:11.300Z,11.20
2022-11-15T09:12:38.292Z,11.30
2022-11-15T09:15:07.644Z,11.30
2022-11-15T09:17:34.433Z,11.30
2022-11-15T09:20:01.208Z,11.30
2022-11-15T09:22:29.499Z,11.40
2022-11-15T09:24:56.219Z,11.50
2022-11-15T09:27:23.048Z,11.60
2022-11-15T09:29:49.842Z,11.70
2022-11-15T09:32:16.569Z,11.70
2022-11-15T09:34:43.583Z,11.90
2022-11-15T09:37:10.475Z,12.00
2022-11-15T09:39:37.202Z,12.10
2022-11-15T09:42:40.770Z,12.30
2022-11-15T09:45:42.503Z,12.40
2022-11-15T09:48:47.549Z,12.40
2022-11-15T09:51:25.814Z,12.50
2022-11-15T09:56:49.097Z,12.50
2022-11-15T09:59:25.340Z,12.50
2022-11-15T10:02:35.511Z,12.50
2022-11-15T10:05:03.044Z,12.60
2022-11-15T10:07:45.630Z,12.60
2022-11-15T10:10:28.254Z,12.70
2022-11-15T10:12:56.118Z,12.70
2022-11-15T10:15:23.794Z,12.60
2022-11-15T10:17:56.568Z,12.60
2022-11-15T10:20:28.082Z,12.60
2022-11-15T10:23:01.280Z,12.60
2022-11-15T10:25:32.235Z,12.50
2022-11-15T10:28:05.022Z,12.40
2022-11-15T10:30:42.310Z,12.30
2022-11-15T10:33:27.047Z,12.20
2022-11-15T10:36:12.561Z,12.10
2022-11-15T10:39:06.587Z,12.20
2022-11-15T10:41:39.151Z,12.40
2022-11-15T10:44:18.498Z,12.50
2022-11-15T10:47:07.787Z,12.60
2022-11-15T10:49:35.830Z,12.70
2022-11-15T10:52:23.083Z,12.80
2022-11-15T10:55:13.113Z,12.80
2022-11-15T10:57:40.814Z,12.90
2022-11-15T11:00:28.352Z,12.80
2022-11-15T11:03:04.280Z,12.70
2022-11-15T11:05:42.983Z,12.50
2022-11-15T11:08:12.621Z,12.40
2022-11-15T11:11:01.414Z,12.40
2022-11-15T11:13:29.230Z,12.30
2022-11-15T11:16:14.698Z,12.30
2022-11-15T11:19:19.523Z,12.20
2022-11-15T11:21:50.510Z,12.20
2022-11-15T11:24:48.860Z,12.20
2022-11-15T11:28:00.956Z,12.20
2022-11-15T11:31:05.588Z,12.20
2022-11-15T11:33:42.978Z,12.30
2022-11-15T11:36:55.435Z,12.30
2022-11-15T11:39:35.475Z,12.30
2022-11-15T11:42:30.167Z,12.20
2022-11-15T11:45:14.654Z,12.30
2022-11-15T11:48:09.173Z,12.40
2022-11-15T11:50:39.472Z,12.40
2022-11-15T11:53:15.380Z,12.60
2022-11-15T11:55:52.676Z,12.40
2022-11-15T11:58:44.083Z,12.40
2022-11-15T12:01:40.555Z,12.40
2022-11-15T12:04:30.634Z,12.30
2022-11-15T12:07:14.222Z,12.20
2022-11-15T12:10:00.570Z,12.20
2022-11-15T12:12:53.898Z,12.30
2022-11-15T12:15:30.776Z,12.50
2022-11-15T12:18:01.035Z,12.50
2022-11-15T12:20:39.671Z,12.60
2022-11-15T12:23:24.072Z,12.70
2022-11-15T12:26:05.187Z,12.70
2022-11-15T12:29:04.850Z,12.80
2022-11-15T12:31:35.818Z,12.90
2022-11-15T12:34:36.021Z,13.00
2022-11-15T12:37:15.871Z,13.00
2022-11-15T12:40:19.375Z,13.10
2022-11-15T12:43:01.926Z,13.20
2022-11-15T12:45:37.877Z,13.20
2022-11-15T12:48:16.922Z,13.30
2022-11-15T12:50:55.271Z,13.10
2022-11-15T12:53:28.668Z,13.20
2022-11-15T12:56:13.440Z,13.10
2022-11-15T12:58:47.545Z,13.00
2022-11-15T13:01:33.298Z,12.90
2022-11-15T13:04:16.124Z,12.90
2022-11-15T13:06:47.904Z,12.90
2022-11-15T13:09:33.368Z,12.90
2022-11-15T13:12:29.254Z,12.90
2022-11-15T13:14:59.491Z,12.80
2022-11-15T13:17:30.850Z,12.70
2022-11-15T13:20:12.612Z,12.70
2022-11-15T13:22:55.724Z,12.70
2022-11-15T13:25:37.969Z,12.80
2022-11-15T13:28:22.780Z,12.80
2022-11-15T13:31:00.288Z,12.90
2022-11-15T13:33:37.862Z,13.00
2022-11-15T13:36:24.239Z,13.00
2022-11-15T13:39:35.179Z,12.90
2022-11-15T13:42:02.081Z,12.90
2022-11-15T13:44:34.560Z,12.90
2022-11-15T13:47:16.725Z,12.90
2022-11-15T13:49:43.883Z,12.90
2022-11-15T13:52:17.326Z,12.80
2022-11-15T13:55:09.811Z,12.80
2022-11-15T13:57:55.760Z,12.70
2022-11-15T14:00:34.706Z,12.50
2022-11-15T14:03:21.200Z,12.50
2022-11-15T14:06:08.552Z,12.50
2022-11-15T14:08:36.728Z,12.40
2022-11-15T14:11:18.768Z,12.40
2022-11-15T14:14:23.412Z,12.40
2022-11-15T14:17:00.218Z,12.30
2022-11-15T14:19:27.097Z,12.30
2022-11-15T14:22:23.647Z,12.30
2022-11-15T14:25:34.572Z,12.20
2022-11-15T14:28:31.546Z,12.20
2022-11-15T14:31:01.313Z,12.20
2022-11-15T14:33:37.640Z,12.20
2022-11-15T14:36:15.050Z,12.20
2022-11-15T14:38:43.741Z,12.10
2022-11-15T14:41:27.341Z,12.20
2022-11-15T14:43:54.629Z,12.20
2022-11-15T14:46:21.521Z,12.10
2022-11-15T14:48:48.343Z,12.20
2022-11-15T14:51:18.918Z,12.10
2022-11-15T14:53:47.653Z,12.10
2022-11-15T14:56:15.614Z,12.00
2022-11-15T14:58:42.679Z,12.10
2022-11-15T15:01:27.074Z,11.90
2022-11-15T15:03:59.204Z,11.80
2022-11-15T15:06:26.803Z,11.70
2022-11-15T15:08:53.567Z,11.70
2022-11-15T15:11:32.209Z,11.60
2022-11-15T15:14:01.888Z,11.60
2022-11-15T15:16:28.774Z,11.50
2022-11-15T15:18:55.578Z,11.50
2022-11-15T15:21:36.821Z,11.50
2022-11-15T15:24:04.524Z,11.40
2022-11-15T15:26:34.621Z,11.50
2022-11-15T15:29:01.395Z,11.50
2022-11-15T15:31:28.188Z,11.50
2022-11-15T15:33:54.963Z,11.40
2022-11-15T15:36:21.825Z,11.40
2022-11-15T15:38:48.688Z,11.40
2022-11-15T15:41:17.615Z,11.40
2022-11-15T15:43:45.203Z,11.40
2022-11-15T15:46:20.309Z,11.40
2022-11-15T15:48:48.230Z,11.40
2022-11-15T15:51:20.113Z,11.40
2022-11-15T15:53:48.896Z,11.40
2022-11-15T15:56:15.996Z,11.30
2022-11-15T15:58:42.878Z,11.40
2022-11-15T16:01:09.770Z,11.20
2022-11-15T16:03:36.631Z,11.10
2022-11-15T16:06:05.306Z,11.00
2022-11-15T16:08:47.722Z,11.00
2022-11-15T16:11:18.932Z,10.90
2022-11-15T16:13:45.780Z,10.90
2022-11-15T16:16:14.704Z,11.00
2022-11-15T16:18:42.449Z,11.00
2022-11-15T16:21:09.879Z,11.00
2022-11-15T16:23:36.705Z,11.10
2022-11-15T16:26:15.723Z,11.00
2022-11-15T16:28:42.631Z,11.10
2022-11-15T16:31:12.405Z,11.10
2022-11-15T16:33:40.879Z,11.20
2022-11-15T16:36:29.811Z,11.20
2022-11-15T16:38:57.540Z,11.20
2022-11-15T16:41:24.438Z,11.10
2022-11-15T16:43:51.530Z,11.10
2022-11-15T16:46:30.297Z,11.00
2022-11-15T16:48:57.718Z,11.00
2022-11-15T16:51:24.728Z,10.90
2022-11-15T16:53:51.612Z,10.90
2022-11-15T16:56:28.471Z,10.90
2022-11-15T16:58:58.739Z,10.90
2022-11-15T17:01:29.325Z,10.90
2022-11-15T17:03:56.999Z,10.90
2022-11-15T17:06:26.320Z,10.90
2022-11-15T17:08:53.377Z,10.90
2022-11-15T17:11:22.563Z,10.90
2022-11-15T17:13:49.612Z,10.90
2022-11-15T17:16:18.753Z,10.90
2022-11-15T17:18:45.806Z,10.90
2022-11-15T17:21:20.609Z,10.90
2022-11-15T17:23:48.028Z,10.90
2022-11-15T17:26:35.039Z,10.90
2022-11-15T17:29:07.661Z,10.90
2022-11-15T17:31:36.567Z,10.80
2022-11-15T17:34:05.861Z,10.80
2022-11-15T17:36:33.704Z,10.80
2022-11-15T17:39:00.864Z,10.80
2022-11-15T17:41:29.143Z,10.70
2022-11-15T17:44:00.581Z,10.70
2022-11-15T17:46:29.001Z,10.70
2022-11-15T17:48:57.475Z,10.70
2022-11-15T17:51:24.699Z,10.70
2022-11-15T17:53:52.921Z,10.70
2022-11-15T17:56:23.182Z,10.70
2022-11-15T17:58:56.589Z,10.80
2022-11-15T18:01:26.342Z,10.70
2022-11-15T18:03:54.383Z,10.70
2022-11-15T18:06:24.066Z,10.70
2022-11-15T18:08:53.527Z,10.60
2022-11-15T18:11:24.713Z,10.60
2022-11-15T18:13:59.141Z,10.60
2022-11-15T18:16:28.570Z,10.60
2022-11-15T18:18:55.635Z,10.70
2022-11-15T18:21:29.203Z,10.60
2022-11-15T18:24:01.972Z,10.60
2022-11-15T18:26:30.893Z,10.60
2022-11-15T18:29:04.407Z,10.60
2022-11-15T18:31:32.176Z,10.60
2022-11-15T18:34:00.853Z,10.60
2022-11-15T18:36:30.576Z,10.60
2022-11-15T18:39:02.257Z,10.70
2022-11-15T18:41:29.747Z,10.60
2022-11-15T18:44:02.149Z,10.70
2022-11-15T18:46:31.971Z,10.80
2022-11-15T18:49:01.726Z,10.70
2022-11-15T18:51:31.334Z,10.70
2022-11-15T18:54:01.872Z,10.70
2022-11-15T18:56:31.477Z,10.80
2022-11-15T18:59:00.857Z,10.80
2022-11-15T19:01:34.624Z,10.80
2022-11-15T19:04:13.485Z,10.90
2022-11-15T19:06:43.247Z,10.70
2022-11-15T19:09:13.926Z,10.80
2022-11-15T19:11:41.676Z,10.80
2022-11-15T19:14:15.053Z,10.80
2022-11-15T19:16:49.943Z,10.80
2022-11-15T19:19:20.661Z,10.70
2022-11-15T19:21:47.902Z,10.60
2022-11-15T19:24:15.363Z,10.60
2022-11-15T19:26:42.942Z,10.50
2022-11-15T19:29:10.554Z,10.40
2022-11-15T19:31:38.375Z,10.30
2022-11-15T19:34:06.839Z,10.30
2022-11-15T19:36:40.323Z,10.20
2022-11-15T19:39:12.720Z,10.20
2022-11-15T19:41:42.869Z,10.20
2022-11-15T19:44:11.907Z,10.10
2022-11-15T19:46:39.425Z,10.10
2022-11-15T19:49:10.362Z,10.10
2022-11-15T19:51:38.892Z,10.10
2022-11-15T19:54:09.750Z,10.10
2022-11-15T19:56:38.121Z,10.10
2022-11-15T19:59:05.630Z,10.00
2022-11-15T20:01:39.345Z,10.00
2022-11-15T20:04:09.828Z,10.00
2022-11-15T20:06:43.080Z,10.00
2022-11-15T20:09:15.563Z,10.00
2022-11-15T20:11:43.095Z,9.90
2022-11-15T20:14:11.724Z,9.90
2022-11-15T20:16:39.341Z,9.90
2022-11-15T20:19:08.416Z,9.90
2022-11-15T20:21:36.208Z,9.80
2022-11-15T20:24:03.601Z,9.90
2022-11-15T20:26:32.098Z,9.90
2022-11-15T20:29:02.105Z,9.90
2022-11-15T20:31:30.690Z,9.90
2022-11-15T20:33:57.970Z,9.90
2022-11-15T20:36:25.014Z,9.80
2022-11-15T20:38:55.791Z,9.90
2022-11-15T20:41:22.599Z,9.80
2022-11-15T20:43:49.404Z,9.80
2022-11-15T20:46:16.178Z,9.80
2022-11-15T20:48:43.005Z,9.80
2022-11-15T20:51:16.982Z,9.90
2022-11-15T20:53:45.715Z,9.90
2022-11-15T20:56:18.036Z,9.80
2022-11-15T20:58:45.813Z,9.80
2022-11-15T21:01:15.500Z,9.80
2022-11-15T21:03:42.911Z,9.80
2022-11-15T21:06:11.175Z,9.80
2022-11-15T21:08:57.432Z,9.80
2022-11-15T21:11:44.030Z,9.70
2022-11-15T21:14:11.284Z,9.70
2022-11-15T21:16:38.959Z,9.70
2022-11-15T21:19:06.799Z,9.70
2022-11-15T21:21:35.422Z,9.70
2022-11-15T21:24:08.319Z,9.60
2022-11-15T21:26:36.216Z,9.70
2022-11-15T21:29:04.541Z,9.70
2022-11-15T21:31:32.172Z,9.70
2022-11-15T21:34:02.575Z,9.70
2022-11-15T21:36:30.025Z,9.60
2022-11-15T21:38:56.881Z,9.60
2022-11-15T21:41:23.942Z,9.60
2022-11-15T21:43:50.731Z,9.70
2022-11-15T21:46:17.770Z,9.60
2022-11-15T21:48:44.640Z,9.60
2022-11-15T21:51:12.173Z,9.60
2022-11-15T21:53:38.978Z,9.60
2022-11-15T21:56:06.832Z,9.60
2022-11-15T21:58:34.416Z,9.60
2022-11-15T22:01:20.507Z,9.60
2022-11-15T22:03:47.486Z,9.60
2022-11-15T22:06:17.761Z,9.60
2022-11-15T22:08:46.397Z,9.60
2022-11-15T22:11:14.150Z,9.60
2022-11-15T22:13:41.297Z,9.60
2022-11-15T22:16:09.370Z,9.60
2022-11-15T22:18:37.299Z,9.60
2022-11-15T22:21:10.164Z,9.60
2022-11-15T22:23:37.488Z,9.50
2022-11-15T22:26:05.743Z,9.50
2022-11-15T22:28:33.503Z,9.50
2022-11-15T22:31:01.888Z,9.50
2022-11-15T22:33:32.175Z,9.50
2022-11-15T22:35:59.937Z,9.50
2022-11-15T22:38:27.935Z,9.50
2022-11-15T22:40:55.937Z,9.50
2022-11-15T22:43:25.668Z,9.50
2022-11-15T22:45:54.434Z,9.60
2022-11-15T22:48:24.663Z,9.60
2022-11-15T22:50:51.782Z,9.60
2022-11-15T22:53:20.004Z,9.60
2022-11-15T22:55:58.708Z,9.50
2022-11-15T22:58:28.931Z,9.60
2022-11-15T23:00:59.653Z,9.50
2022-11-15T23:03:28.208Z,9.50
2022-11-15T23:05:55.533Z,9.50
2022-11-15T23:08:23.773Z,9.50
2022-11-15T23:11:09.174Z,9.50
2022-11-15T23:13:36.184Z,9.50
2022-11-15T23:16:22.228Z,9.50
2022-11-15T23:18:52.450Z,9.50
2022-11-15T23:21:58.251Z,9.50
2022-11-15T23:24:25.393Z,9.50
2022-11-15T23:27:01.173Z,9.50
2022-11-15T23:29:29.488Z,9.50
2022-11-15T23:32:15.983Z,9.50
2022-11-15T23:34:45.797Z,9.50
2022-11-15T23:37:15.299Z,9.40
2022-11-15T23:39:42.304Z,9.40
2022-11-15T23:42:19.608Z,9.40
2022-11-15T23:44:49.847Z,9.40
2022-11-15T23:47:18.852Z,9.40
2022-11-15T23:49:45.752Z,9.40
2022-11-15T23:52:12.688Z,9.40
2022-11-15T23:54:39.525Z,9.40
2022-11-15T23:57:11.652Z,9.40
2022-11-15T23:59:40.771Z,9.40
